createdAt,value
2019-02-08T00:00:44.521Z,99845.48
2019-02-08T00:01:48.627Z,99847.51
2019-02-08T00:02:52.734Z,99846.92
2019-02-08T00:03:56.726Z,99849.81
2019-02-08T00:05:00.722Z,99848.78
2019-02-08T00:06:04.968Z,99849.91
2019-02-08T00:07:09.024Z,99840.33
2019-02-08T00:08:13.199Z,99833.31
2019-02-08T00:09:17.347Z,99830.64
2019-02-08T00:10:21.544Z,99833.31
2019-02-08T00:11:25.624Z,99830.64
2019-02-08T00:12:29.649Z,99820.44
2019-02-08T00:13:33.665Z,99812.16
2019-02-08T00:14:37.667Z,99816.93
2019-02-08T00:15:41.737Z,99808.89
2019-02-08T00:16:45.836Z,99806.20
2019-02-08T00:17:49.983Z,99811.26
2019-02-08T00:18:54.047Z,99820.53
2019-02-08T00:19:58.080Z,99819.71
2019-02-08T00:21:02.094Z,99821.36
2019-02-08T00:22:07.127Z,99817.66
2019-02-08T00:23:11.184Z,99820.02
2019-02-08T00:24:15.351Z,99818.03
2019-02-08T00:25:19.767Z,99822.70
2019-02-08T00:26:24.185Z,99820.71
2019-02-08T00:27:28.604Z,99795.35
2019-02-08T00:28:33.212Z,99799.99
2019-02-08T00:29:37.505Z,99809.30
2019-02-08T00:30:41.821Z,99804.73
2019-02-08T00:31:46.028Z,99812.36
2019-02-08T00:32:50.376Z,99808.65
2019-02-08T00:33:54.658Z,99816.00
2019-02-08T00:34:58.940Z,99805.28
2019-02-08T00:36:03.264Z,99798.27
2019-02-08T00:37:07.529Z,99795.69
2019-02-08T00:38:11.848Z,99796.42
2019-02-08T00:39:16.372Z,99788.37
2019-02-08T00:40:20.553Z,99791.57
2019-02-08T00:41:24.661Z,99789.38
2019-02-08T00:42:28.876Z,99793.73
2019-02-08T00:43:32.940Z,99791.23
2019-02-08T00:44:37.013Z,99791.23
2019-02-08T00:45:41.017Z,99795.39
2019-02-08T00:46:45.099Z,99797.93
2019-02-08T00:47:49.124Z,99801.57
2019-02-08T00:48:53.159Z,99791.57
2019-02-08T00:49:57.182Z,99799.27
2019-02-08T00:51:01.407Z,99804.11
2019-02-08T00:52:05.657Z,99802.60
2019-02-08T00:53:10.049Z,99803.94
2019-02-08T00:54:14.511Z,99801.44
2019-02-08T00:55:19.049Z,99795.59
2019-02-08T00:56:23.360Z,99789.58
2019-02-08T00:57:27.672Z,99791.88
2019-02-08T00:58:31.873Z,99794.77
2019-02-08T00:59:36.145Z,99795.91
2019-02-08T01:00:40.478Z,99791.88
2019-02-08T01:01:44.807Z,99793.53
2019-02-08T01:02:49.305Z,99789.20
2019-02-08T01:03:53.657Z,99791.37
2019-02-08T01:04:58.348Z,99777.31
2019-02-08T01:06:02.626Z,99770.75
2019-02-08T01:07:07.132Z,99770.44
2019-02-08T01:08:11.254Z,99765.08
2019-02-08T01:09:15.352Z,99760.75
2019-02-08T01:10:24.015Z,99762.58
2019-02-08T01:11:28.042Z,99767.63
2019-02-08T01:12:32.041Z,99760.00
2019-02-08T01:13:36.033Z,99771.65
2019-02-08T01:14:40.113Z,99760.10
2019-02-08T01:15:44.258Z,99757.73
2019-02-08T01:16:48.246Z,99747.36
2019-02-08T01:17:52.348Z,99750.34
2019-02-08T01:18:56.423Z,99734.57
2019-02-08T01:20:00.536Z,99737.25
2019-02-08T01:21:11.278Z,99736.63
2019-02-08T01:22:15.301Z,99736.42
2019-02-08T01:23:19.381Z,99727.45
2019-02-08T01:24:24.257Z,99735.19
2019-02-08T01:25:27.754Z,99741.99
2019-02-08T01:26:31.834Z,99733.00
2019-02-08T01:27:35.882Z,99731.66
2019-02-08T01:28:39.932Z,99723.92
2019-02-08T01:29:43.988Z,99726.61
2019-02-08T01:30:48.043Z,99718.05
2019-02-08T01:31:52.117Z,99715.58
2019-02-08T01:32:56.308Z,99721.55
2019-02-08T01:34:00.319Z,99710.22
2019-02-08T01:35:04.590Z,99713.20
2019-02-08T01:36:08.643Z,99707.54
2019-02-08T01:37:12.777Z,99710.66
2019-02-08T01:38:16.979Z,99704.78
2019-02-08T01:39:20.991Z,99708.38
2019-02-08T01:40:29.052Z,99711.27
2019-02-08T01:41:33.116Z,99698.77
2019-02-08T01:42:37.797Z,99704.48
2019-02-08T01:43:42.150Z,99699.42
2019-02-08T01:44:46.468Z,99696.09
2019-02-08T01:45:50.741Z,99687.05
2019-02-08T01:46:54.973Z,99682.91
2019-02-08T01:47:59.460Z,99687.13
2019-02-08T01:49:03.785Z,99693.83
2019-02-08T01:50:10.337Z,99689.81
2019-02-08T01:51:14.618Z,99686.91
2019-02-08T01:52:19.052Z,99690.02
2019-02-08T01:53:23.516Z,99678.48
2019-02-08T01:54:27.885Z,99681.16
2019-02-08T01:55:32.205Z,99683.11
2019-02-08T01:56:36.492Z,99677.03
2019-02-08T01:57:40.829Z,99673.55
2019-02-08T01:58:45.253Z,99668.30
2019-02-08T01:59:49.623Z,99663.63
2019-02-08T02:00:53.952Z,99660.95
2019-02-08T02:01:58.245Z,99661.39
2019-02-08T02:03:02.668Z,99666.53
2019-02-08T02:04:07.008Z,99654.48
2019-02-08T02:05:11.403Z,99650.87
2019-02-08T02:06:15.743Z,99645.83
2019-02-08T02:07:20.000Z,99649.20
2019-02-08T02:08:24.247Z,99634.16
2019-02-08T02:09:28.753Z,99642.50
2019-02-08T02:10:35.540Z,99635.49
2019-02-08T02:11:39.824Z,99639.20
2019-02-08T02:12:44.218Z,99628.60
2019-02-08T02:13:48.533Z,99631.47
2019-02-08T02:14:52.894Z,99628.80
2019-02-08T02:15:57.238Z,99621.06
2019-02-08T02:17:01.406Z,99615.39
2019-02-08T02:18:06.141Z,99610.03
2019-02-08T02:19:10.578Z,99604.89
2019-02-08T02:20:15.518Z,99605.11
2019-02-08T02:21:19.922Z,99610.47
2019-02-08T02:22:24.299Z,99606.32
2019-02-08T02:23:28.644Z,99607.66
2019-02-08T02:24:32.887Z,99602.22
2019-02-08T02:25:37.287Z,99596.86
2019-02-08T02:26:41.672Z,99594.18
2019-02-08T02:27:46.125Z,99591.80
2019-02-08T02:28:50.385Z,99596.13
2019-02-08T02:29:54.674Z,99597.37
2019-02-08T02:30:58.976Z,99589.43
2019-02-08T02:32:03.400Z,99583.45
2019-02-08T02:33:09.217Z,99597.16
2019-02-08T02:34:13.638Z,99579.02
2019-02-08T02:35:18.149Z,99577.37
2019-02-08T02:36:22.607Z,99576.34
2019-02-08T02:37:26.989Z,99571.49
2019-02-08T02:38:31.270Z,99572.83
2019-02-08T02:39:35.600Z,99566.65
2019-02-08T02:40:40.058Z,99581.39
2019-02-08T02:41:44.326Z,99575.20
2019-02-08T02:42:48.380Z,99583.16
2019-02-08T02:43:52.343Z,99571.59
2019-02-08T02:44:56.349Z,99564.19
2019-02-08T02:46:00.463Z,99562.54
2019-02-08T02:47:04.560Z,99558.00
2019-02-08T02:48:10.793Z,99550.48
2019-02-08T02:49:14.823Z,99546.25
2019-02-08T02:50:19.026Z,99544.48
2019-02-08T02:51:23.067Z,99537.48
2019-02-08T02:52:27.072Z,99529.22
2019-02-08T02:53:31.050Z,99531.30
2019-02-08T02:54:35.153Z,99537.69
2019-02-08T02:55:39.228Z,99534.06
2019-02-08T02:56:43.320Z,99531.30
2019-02-08T02:57:47.382Z,99540.16
2019-02-08T02:58:51.370Z,99528.09
2019-02-08T02:59:55.377Z,99515.00
2019-02-08T03:00:59.442Z,99523.47
2019-02-08T03:02:03.545Z,99519.63
2019-02-08T03:03:07.756Z,99520.78
2019-02-08T03:04:11.840Z,99521.82
2019-02-08T03:05:16.039Z,99511.62
2019-02-08T03:06:20.123Z,99522.34
2019-02-08T03:07:24.241Z,99507.27
2019-02-08T03:08:28.251Z,99511.28
2019-02-08T03:09:32.249Z,99508.81
2019-02-08T03:10:36.362Z,99504.92
2019-02-08T03:11:40.375Z,99505.53
2019-02-08T03:12:44.511Z,99506.56
2019-02-08T03:13:48.543Z,99503.66
2019-02-08T03:14:52.577Z,99501.38
2019-02-08T03:15:56.734Z,99496.33
2019-02-08T03:17:00.714Z,99494.38
2019-02-08T03:18:05.252Z,99494.59
2019-02-08T03:19:09.385Z,99492.73
2019-02-08T03:20:14.926Z,99485.13
2019-02-08T03:21:18.998Z,99492.13
2019-02-08T03:22:23.023Z,99483.27
2019-02-08T03:23:27.215Z,99493.16
2019-02-08T03:24:31.222Z,99486.45
2019-02-08T03:25:35.395Z,99494.98
2019-02-08T03:26:39.453Z,99496.75
2019-02-08T03:27:43.510Z,99479.55
2019-02-08T03:28:47.600Z,99493.47
2019-02-08T03:29:51.629Z,99491.52
2019-02-08T03:30:57.820Z,99488.84
2019-02-08T03:32:01.879Z,99482.22
2019-02-08T03:33:06.060Z,99483.88
2019-02-08T03:34:10.209Z,99488.63
2019-02-08T03:35:17.301Z,99482.02
2019-02-08T03:36:21.329Z,99479.23
2019-02-08T03:37:25.319Z,99477.38
2019-02-08T03:38:29.338Z,99477.26
2019-02-08T03:39:33.405Z,99476.44
2019-02-08T03:40:37.514Z,99475.83
2019-02-08T03:41:41.527Z,99471.42
2019-02-08T03:42:45.639Z,99476.95
2019-02-08T03:43:49.646Z,99473.96
2019-02-08T03:44:53.685Z,99463.34
2019-02-08T03:46:04.497Z,99474.77
2019-02-08T03:47:08.499Z,99474.66
2019-02-08T03:48:13.090Z,99470.33
2019-02-08T03:49:17.270Z,99467.77
2019-02-08T03:50:21.835Z,99471.06
2019-02-08T03:51:25.840Z,99465.09
2019-02-08T03:52:29.880Z,99463.76
2019-02-08T03:53:33.893Z,99463.55
2019-02-08T03:54:37.870Z,99469.22
2019-02-08T03:55:42.052Z,99470.25
2019-02-08T03:56:46.078Z,99468.18
2019-02-08T03:57:50.227Z,99459.61
2019-02-08T03:58:54.231Z,99460.04
2019-02-08T03:59:58.223Z,99450.88
2019-02-08T04:01:04.346Z,99458.91
2019-02-08T04:02:08.425Z,99446.13
2019-02-08T04:03:12.490Z,99455.28
2019-02-08T04:04:17.351Z,99449.02
2019-02-08T04:05:21.385Z,99451.70
2019-02-08T04:06:25.525Z,99450.27
2019-02-08T04:07:29.556Z,99449.63
2019-02-08T04:08:33.679Z,99445.83
2019-02-08T04:09:37.721Z,99438.82
2019-02-08T04:10:41.796Z,99448.59
2019-02-08T04:11:45.896Z,99445.09
2019-02-08T04:12:49.924Z,99446.05
2019-02-08T04:13:53.922Z,99442.41
2019-02-08T04:14:57.960Z,99448.81
2019-02-08T04:16:01.986Z,99445.09
2019-02-08T04:17:06.073Z,99437.55
2019-02-08T04:18:10.158Z,99432.62
2019-02-08T04:19:14.183Z,99433.23
2019-02-08T04:20:18.371Z,99433.97
2019-02-08T04:21:22.369Z,99420.56
2019-02-08T04:22:26.497Z,99438.06
2019-02-08T04:23:30.556Z,99435.48
2019-02-08T04:24:34.580Z,99428.48
2019-02-08T04:25:38.612Z,99428.70
2019-02-08T04:26:42.622Z,99419.30
2019-02-08T04:27:46.718Z,99407.17
2019-02-08T04:28:50.710Z,99413.00
2019-02-08T04:29:54.742Z,99413.33
2019-02-08T04:30:58.748Z,99416.72
2019-02-08T04:32:02.817Z,99415.81
2019-02-08T04:33:06.898Z,99408.50
2019-02-08T04:34:10.927Z,99413.73
2019-02-08T04:35:15.004Z,99412.39
2019-02-08T04:36:19.010Z,99403.75
2019-02-08T04:37:23.082Z,99404.25
2019-02-08T04:38:27.116Z,99403.21
2019-02-08T04:39:31.117Z,99398.16
2019-02-08T04:40:35.096Z,99402.56
2019-02-08T04:41:39.103Z,99399.80
2019-02-08T04:42:43.121Z,99391.31
2019-02-08T04:43:47.185Z,99391.23
2019-02-08T04:44:51.160Z,99376.51
2019-02-08T04:45:55.159Z,99384.75
2019-02-08T04:46:59.161Z,99388.03
2019-02-08T04:48:03.172Z,99382.86
2019-02-08T04:49:07.365Z,99381.03
2019-02-08T04:50:13.753Z,99379.98
2019-02-08T04:51:17.932Z,99385.79
2019-02-08T04:52:21.943Z,99379.69
2019-02-08T04:53:25.915Z,99377.61
2019-02-08T04:54:37.912Z,99385.05
2019-02-08T04:55:34.093Z,99373.06
2019-02-08T04:56:38.096Z,99373.89
2019-02-08T04:57:42.195Z,99377.97
2019-02-08T04:58:46.205Z,99377.37
2019-02-08T04:59:50.306Z,99369.54
2019-02-08T05:00:54.296Z,99370.20
2019-02-08T05:01:58.292Z,99374.63
2019-02-08T05:03:02.407Z,99366.28
2019-02-08T05:04:06.628Z,99369.98
2019-02-08T05:05:10.941Z,99369.05
2019-02-08T05:06:14.930Z,99372.68
2019-02-08T05:07:18.937Z,99368.86
2019-02-08T05:08:22.917Z,99366.78
2019-02-08T05:09:27.186Z,99368.52
2019-02-08T05:10:31.787Z,99366.88
2019-02-08T05:11:35.865Z,99374.52
2019-02-08T05:12:39.886Z,99363.80
2019-02-08T05:13:43.887Z,99368.97
2019-02-08T05:14:47.913Z,99357.20
2019-02-08T05:15:51.965Z,99356.60
2019-02-08T05:16:55.983Z,99361.73
2019-02-08T05:18:00.022Z,99364.64
2019-02-08T05:19:04.127Z,99369.09
2019-02-08T05:20:09.159Z,99358.45
2019-02-08T05:21:13.193Z,99355.88
2019-02-08T05:22:17.221Z,99353.31
2019-02-08T05:23:21.246Z,99364.86
2019-02-08T05:24:25.339Z,99356.90
2019-02-08T05:25:29.441Z,99356.00
2019-02-08T05:26:33.509Z,99354.36
2019-02-08T05:27:37.535Z,99347.95
2019-02-08T05:28:41.571Z,99352.28
2019-02-08T05:29:45.574Z,99348.14
2019-02-08T05:30:49.596Z,99351.45
2019-02-08T05:31:53.691Z,99358.84
2019-02-08T05:32:57.765Z,99363.60
2019-02-08T05:34:01.800Z,99358.24
2019-02-08T05:35:06.334Z,99358.00
2019-02-08T05:36:10.382Z,99355.91
2019-02-08T05:37:14.474Z,99356.95
2019-02-08T05:38:18.492Z,99355.51
2019-02-08T05:39:22.545Z,99368.28
2019-02-08T05:40:26.620Z,99354.16
2019-02-08T05:41:30.621Z,99359.72
2019-02-08T05:42:34.638Z,99359.64
2019-02-08T05:43:38.644Z,99355.51
2019-02-08T05:44:42.800Z,99356.52
2019-02-08T05:45:46.814Z,99342.95
2019-02-08T05:46:50.813Z,99346.37
2019-02-08T05:47:54.866Z,99351.81
2019-02-08T05:48:58.912Z,99352.63
2019-02-08T05:50:02.991Z,99357.17
2019-02-08T05:51:06.976Z,99357.55
2019-02-08T05:52:11.038Z,99355.53
2019-02-08T05:53:15.163Z,99345.87
2019-02-08T05:54:19.288Z,99336.98
2019-02-08T05:55:25.360Z,99355.17
2019-02-08T05:56:29.490Z,99352.83
2019-02-08T05:57:33.532Z,99353.02
2019-02-08T05:58:37.573Z,99350.85
2019-02-08T05:59:41.580Z,99349.44
2019-02-08T06:00:49.932Z,99352.77
2019-02-08T06:01:53.947Z,99356.80
2019-02-08T06:02:58.045Z,99362.16
2019-02-08T06:04:02.116Z,99355.09
2019-02-08T06:05:07.107Z,99361.17
2019-02-08T06:06:11.133Z,99351.48
2019-02-08T06:07:15.101Z,99340.23
2019-02-08T06:08:19.229Z,99357.61
2019-02-08T06:09:23.381Z,99361.98
2019-02-08T06:10:27.393Z,99362.07
2019-02-08T06:11:33.002Z,99362.21
2019-02-08T06:12:35.609Z,99354.55
2019-02-08T06:13:39.745Z,99359.83
2019-02-08T06:14:43.853Z,99359.20
2019-02-08T06:15:47.857Z,99364.78
2019-02-08T06:16:51.887Z,99363.85
2019-02-08T06:17:55.938Z,99368.91
2019-02-08T06:19:00.000Z,99377.56
2019-02-08T06:20:04.657Z,99374.88
2019-02-08T06:21:08.672Z,99374.03
2019-02-08T06:22:12.725Z,99355.80
2019-02-08T06:23:16.758Z,99370.20
2019-02-08T06:24:20.778Z,99365.35
2019-02-08T06:25:25.094Z,99372.36
2019-02-08T06:26:29.223Z,99360.13
2019-02-08T06:27:33.228Z,99361.33
2019-02-08T06:28:37.239Z,99365.55
2019-02-08T06:29:41.268Z,99361.73
2019-02-08T06:30:45.469Z,99368.31
2019-02-08T06:31:49.526Z,99368.14
2019-02-08T06:32:53.597Z,99366.59
2019-02-08T06:33:57.657Z,99376.27
2019-02-08T06:35:01.719Z,99373.38
2019-02-08T06:36:05.838Z,99363.69
2019-02-08T06:37:09.905Z,99372.17
2019-02-08T06:38:13.980Z,99371.95
2019-02-08T06:39:18.058Z,99369.05
2019-02-08T06:40:23.594Z,99365.73
2019-02-08T06:41:27.731Z,99367.38
2019-02-08T06:42:31.777Z,99364.55
2019-02-08T06:43:35.822Z,99365.30
2019-02-08T06:44:39.899Z,99368.91
2019-02-08T06:45:44.015Z,99355.86
2019-02-08T06:46:48.031Z,99359.44
2019-02-08T06:47:52.169Z,99371.20
2019-02-08T06:48:56.201Z,99363.88
2019-02-08T06:50:00.868Z,99368.00
2019-02-08T06:51:04.993Z,99377.39
2019-02-08T06:52:09.151Z,99370.36
2019-02-08T06:53:13.248Z,99379.85
2019-02-08T06:54:17.382Z,99376.80
2019-02-08T06:55:21.533Z,99376.46
2019-02-08T06:56:30.503Z,99361.96
2019-02-08T06:57:38.629Z,99363.30
2019-02-08T06:58:47.636Z,99372.77
2019-02-08T06:59:56.583Z,99366.28
2019-02-08T07:02:03.388Z,99369.08
2019-02-08T07:03:15.319Z,99369.87
2019-02-08T07:04:56.813Z,99377.47
2019-02-08T07:06:36.077Z,99363.46
2019-02-08T07:07:45.278Z,99379.08
2019-02-08T07:09:25.468Z,99377.80
2019-02-08T07:10:36.373Z,99385.95
2019-02-08T07:11:45.615Z,99381.41
2019-02-08T07:13:13.744Z,99388.86
2019-02-08T07:14:29.849Z,99391.77
2019-02-08T07:15:43.922Z,99389.08
2019-02-08T07:16:54.832Z,99389.24
2019-02-08T07:18:05.785Z,99387.12
2019-02-08T07:19:17.890Z,99386.86
2019-02-08T07:20:26.939Z,99387.82
2019-02-08T07:22:06.576Z,99392.22
2019-02-08T07:23:19.420Z,99393.48
2019-02-08T07:24:30.488Z,99393.48
2019-02-08T07:26:40.261Z,99398.22
2019-02-08T07:27:56.257Z,99392.34
2019-02-08T07:30:04.091Z,99390.03
2019-02-08T07:32:15.887Z,99398.08
2019-02-08T07:33:24.953Z,99407.77
2019-02-08T07:34:34.285Z,99400.98
2019-02-08T07:37:46.163Z,99397.27
2019-02-08T07:38:56.274Z,99398.93
2019-02-08T07:41:12.960Z,99398.93
2019-02-08T07:42:21.128Z,99407.61
2019-02-08T07:43:44.308Z,99405.75
2019-02-08T07:44:53.588Z,99405.53
2019-02-08T07:47:07.676Z,99422.14
2019-02-08T07:48:16.794Z,99414.77
2019-02-08T07:49:28.813Z,99422.52
2019-02-08T07:50:47.875Z,99425.84
2019-02-08T07:51:58.809Z,99426.84
2019-02-08T07:53:38.199Z,99421.81
2019-02-08T07:54:51.413Z,99435.53
2019-02-08T07:56:07.561Z,99429.64
2019-02-08T07:57:17.635Z,99430.47
2019-02-08T07:58:33.772Z,99434.19
2019-02-08T07:59:44.846Z,99430.63
2019-02-08T08:00:56.934Z,99438.87
2019-02-08T08:02:06.010Z,99440.31
2019-02-08T08:03:16.230Z,99434.12
2019-02-08T08:04:26.299Z,99440.02
2019-02-08T08:05:38.249Z,99431.66
2019-02-08T08:07:51.672Z,99428.98
2019-02-08T08:09:00.932Z,99434.19
2019-02-08T08:10:16.689Z,99444.48
2019-02-08T08:11:30.635Z,99449.89
2019-02-08T08:13:42.550Z,99452.91
2019-02-08T08:14:55.681Z,99446.72
2019-02-08T08:16:09.613Z,99467.58
2019-02-08T08:19:27.485Z,99449.92
2019-02-08T08:21:44.275Z,99471.36
2019-02-08T08:22:53.315Z,99461.16
2019-02-08T08:24:08.445Z,99462.58
2019-02-08T08:25:18.550Z,99460.61
2019-02-08T08:26:29.596Z,99462.88
2019-02-08T08:28:41.585Z,99467.23
2019-02-08T08:30:21.060Z,99479.41
2019-02-08T08:31:29.280Z,99474.48
2019-02-08T08:32:37.644Z,99481.80
2019-02-08T08:33:49.411Z,99477.69
2019-02-08T08:35:02.917Z,99481.19
2019-02-08T08:36:21.121Z,99478.29
2019-02-08T08:39:42.568Z,99484.27
2019-02-08T08:41:07.114Z,99487.16
2019-02-08T08:45:30.221Z,99492.09
2019-02-08T08:48:47.534Z,99491.33
2019-02-08T08:50:11.938Z,99491.84
2019-02-08T08:53:29.426Z,99499.79
2019-02-08T08:57:02.160Z,99510.83
2019-02-08T08:58:19.129Z,99511.56
2019-02-08T09:02:35.942Z,99510.94
2019-02-08T09:03:58.413Z,99513.61
2019-02-08T09:05:54.270Z,99510.84
2019-02-08T09:07:53.361Z,99515.91
2019-02-08T09:11:16.771Z,99517.88
2019-02-08T09:12:29.889Z,99508.93
2019-02-08T09:14:50.202Z,99517.58
2019-02-08T09:20:13.829Z,99522.64
2019-02-08T09:21:33.420Z,99528.61
2019-02-08T09:24:50.885Z,99525.33
2019-02-08T09:26:43.691Z,99537.70
2019-02-08T09:28:18.305Z,99543.59
2019-02-08T09:30:13.999Z,99534.84
2019-02-08T09:31:37.764Z,99536.88
2019-02-08T09:33:54.212Z,99545.95
2019-02-08T09:35:23.081Z,99542.25
2019-02-08T09:36:47.328Z,99545.34
2019-02-08T09:37:58.020Z,99549.90
2019-02-08T09:39:12.981Z,99552.88
2019-02-08T09:40:37.209Z,99548.03
2019-02-08T09:58:41.375Z,99555.62
2019-02-08T10:01:04.117Z,99584.72
2019-02-08T10:03:24.587Z,99578.12
2019-02-08T10:04:54.631Z,99587.81
2019-02-08T10:06:12.218Z,99599.08
2019-02-08T10:07:29.867Z,99596.25
2019-02-08T10:08:50.426Z,99598.42
2019-02-08T10:14:10.650Z,99605.44
2019-02-08T10:17:30.659Z,99608.23
2019-02-08T10:18:48.513Z,99606.67
2019-02-08T10:20:03.194Z,99620.92
2019-02-08T10:21:30.833Z,99623.09
2019-02-08T10:24:50.720Z,99622.87
2019-02-08T10:26:06.624Z,99620.18
2019-02-08T10:27:31.313Z,99627.63
2019-02-08T10:30:48.977Z,99628.02
2019-02-08T10:34:06.045Z,99629.06
2019-02-08T10:35:25.425Z,99636.72
2019-02-08T10:38:50.478Z,99640.33
2019-02-08T10:42:26.792Z,99642.91
2019-02-08T10:43:43.744Z,99650.00
2019-02-08T10:45:23.609Z,99654.62
2019-02-08T10:47:53.942Z,99654.03
2019-02-08T10:51:21.553Z,99662.38
2019-02-08T10:52:47.955Z,99675.50
2019-02-08T10:56:14.883Z,99669.53
2019-02-08T11:01:41.987Z,99675.61
2019-02-08T11:07:02.328Z,99676.77
2019-02-08T11:10:20.088Z,99706.47
2019-02-08T11:11:42.648Z,99700.88
2019-02-08T11:12:57.747Z,99693.05
2019-02-08T11:14:13.355Z,99697.59
2019-02-08T11:15:56.215Z,99703.57
2019-02-08T11:17:11.157Z,99697.59
2019-02-08T11:18:34.424Z,99706.26
2019-02-08T11:19:36.921Z,99708.54
2019-02-08T11:20:40.986Z,99712.87
2019-02-08T11:21:45.117Z,99710.80
2019-02-08T11:22:49.147Z,99711.09
2019-02-08T11:23:53.182Z,99719.15
2019-02-08T11:24:57.224Z,99719.06
2019-02-08T11:26:01.286Z,99718.02
2019-02-08T11:27:05.470Z,99720.63
2019-02-08T11:28:09.468Z,99717.94
2019-02-08T11:29:13.646Z,99732.10
2019-02-08T11:30:18.229Z,99730.84
2019-02-08T11:31:22.371Z,99723.31
2019-02-08T11:32:40.884Z,99722.70
2019-02-08T11:33:30.741Z,99730.94
2019-02-08T11:34:34.798Z,99721.53
2019-02-08T11:35:38.842Z,99726.00
2019-02-08T11:36:42.982Z,99738.38
2019-02-08T11:37:47.085Z,99720.32
2019-02-08T11:38:51.153Z,99728.98
2019-02-08T11:39:55.384Z,99732.06
2019-02-08T11:40:59.533Z,99739.90
2019-02-08T11:42:03.574Z,99724.52
2019-02-08T11:43:07.698Z,99733.02
2019-02-08T11:44:11.807Z,99740.94
2019-02-08T11:45:15.921Z,99720.80
2019-02-08T11:46:20.119Z,99725.77
2019-02-08T11:47:24.122Z,99724.83
2019-02-08T11:48:28.207Z,99735.77
2019-02-08T11:49:32.222Z,99724.64
2019-02-08T11:50:36.388Z,99722.14
2019-02-08T11:51:40.537Z,99726.91
2019-02-08T11:52:44.668Z,99736.00
2019-02-08T11:53:48.769Z,99730.33
2019-02-08T11:54:52.785Z,99731.36
2019-02-08T11:55:56.809Z,99738.59
2019-02-08T11:57:00.832Z,99735.39
2019-02-08T11:58:05.018Z,99738.47
2019-02-08T11:59:09.236Z,99760.78
2019-02-08T12:00:17.775Z,99740.46
2019-02-08T12:01:21.892Z,99738.08
2019-02-08T12:02:25.886Z,99740.64
2019-02-08T12:03:29.897Z,99749.42
2019-02-08T12:04:34.009Z,99750.77
2019-02-08T12:05:38.048Z,99754.80
2019-02-08T12:06:42.137Z,99749.42
2019-02-08T12:07:46.268Z,99748.08
2019-02-08T12:08:50.312Z,99747.77
2019-02-08T12:09:54.301Z,99764.07
2019-02-08T12:10:58.417Z,99765.75
2019-02-08T12:12:02.521Z,99761.38
2019-02-08T12:13:06.590Z,99749.42
2019-02-08T12:14:10.683Z,99768.31
2019-02-08T12:15:15.562Z,99766.36
2019-02-08T12:16:19.710Z,99755.92
2019-02-08T12:17:23.713Z,99767.70
2019-02-08T12:18:27.813Z,99757.69
2019-02-08T12:19:31.876Z,99764.28
2019-02-08T12:20:35.977Z,99768.73
2019-02-08T12:21:40.117Z,99767.61
2019-02-08T12:22:44.168Z,99772.34
2019-02-08T12:23:48.202Z,99764.71
2019-02-08T12:24:52.566Z,99767.09
2019-02-08T12:25:56.452Z,99768.83
2019-02-08T12:27:00.480Z,99770.08
2019-02-08T12:28:04.599Z,99768.83
2019-02-08T12:29:09.029Z,99772.26
2019-02-08T12:30:17.773Z,99773.17
2019-02-08T12:31:21.897Z,99773.59
2019-02-08T12:32:25.905Z,99769.57
2019-02-08T12:33:29.982Z,99778.36
2019-02-08T12:34:33.986Z,99778.54
2019-02-08T12:35:38.097Z,99786.20
2019-02-08T12:36:42.168Z,99780.62
2019-02-08T12:37:46.296Z,99785.16
2019-02-08T12:38:50.328Z,99778.36
2019-02-08T12:40:57.500Z,99779.80
2019-02-08T12:42:01.709Z,99787.63
2019-02-08T12:43:06.163Z,99796.21
2019-02-08T12:44:10.542Z,99799.42
2019-02-08T12:45:14.956Z,99799.20
2019-02-08T12:46:19.112Z,99797.77
2019-02-08T12:47:23.103Z,99807.17
2019-02-08T12:48:27.087Z,99804.05
2019-02-08T12:49:31.110Z,99806.44
2019-02-08T12:50:35.213Z,99805.39
2019-02-08T12:51:39.328Z,99801.28
2019-02-08T12:52:43.340Z,99796.42
2019-02-08T12:53:47.416Z,99802.53
2019-02-08T12:54:51.536Z,99806.56
2019-02-08T12:55:55.548Z,99809.33
2019-02-08T12:56:59.737Z,99817.52
2019-02-08T12:58:03.809Z,99811.93
2019-02-08T12:59:07.921Z,99811.20
2019-02-08T13:00:15.016Z,99812.84
2019-02-08T13:01:19.121Z,99813.88
2019-02-08T13:02:23.271Z,99810.58
2019-02-08T13:03:27.279Z,99810.59
2019-02-08T13:04:31.337Z,99809.86
2019-02-08T13:05:35.429Z,99812.97
2019-02-08T13:06:39.502Z,99811.50
2019-02-08T13:07:43.554Z,99810.80
2019-02-08T13:08:47.549Z,99827.52
2019-02-08T13:09:51.596Z,99833.41
2019-02-08T13:10:55.664Z,99831.55
2019-02-08T13:11:59.689Z,99832.89
2019-02-08T13:13:03.808Z,99829.17
2019-02-08T13:14:07.911Z,99839.52
2019-02-08T13:15:12.321Z,99838.88
2019-02-08T13:16:16.388Z,99829.27
2019-02-08T13:17:20.456Z,99838.27
2019-02-08T13:18:24.523Z,99842.72
2019-02-08T13:19:28.561Z,99840.64
2019-02-08T13:20:32.709Z,99842.91
2019-02-08T13:21:36.697Z,99846.93
2019-02-08T13:22:40.701Z,99849.31
2019-02-08T13:23:44.838Z,99846.31
2019-02-08T13:24:48.862Z,99842.41
2019-02-08T13:25:52.969Z,99847.05
2019-02-08T13:26:57.003Z,99845.80
2019-02-08T13:28:01.042Z,99840.95
2019-02-08T13:29:05.555Z,99845.92
2019-02-08T13:30:18.918Z,99846.02
2019-02-08T13:31:22.964Z,99851.08
2019-02-08T13:32:27.025Z,99841.37
2019-02-08T13:33:31.129Z,99849.52
2019-02-08T13:34:35.265Z,99845.71
2019-02-08T13:35:39.329Z,99850.34
2019-02-08T13:36:43.410Z,99845.19
2019-02-08T13:37:47.568Z,99846.53
2019-02-08T13:38:51.601Z,99856.54
2019-02-08T13:39:55.724Z,99855.71
2019-02-08T13:40:59.811Z,99859.73
2019-02-08T13:42:03.857Z,99860.99
2019-02-08T13:43:07.885Z,99864.59
2019-02-08T13:44:11.932Z,99860.56
2019-02-08T13:45:16.168Z,99868.62
2019-02-08T13:46:20.277Z,99868.73
2019-02-08T13:47:24.389Z,99858.30
2019-02-08T13:48:28.461Z,99863.14
2019-02-08T13:49:32.517Z,99869.35
2019-02-08T13:50:36.620Z,99860.77
2019-02-08T13:51:40.688Z,99866.36
2019-02-08T13:52:44.782Z,99870.69
2019-02-08T13:53:48.959Z,99873.69
2019-02-08T13:54:53.078Z,99863.67
2019-02-08T13:55:57.247Z,99863.27
2019-02-08T13:57:01.236Z,99880.09
2019-02-08T13:58:06.242Z,99873.59
2019-02-08T13:59:09.479Z,99873.38
2019-02-08T14:00:17.278Z,99878.53
2019-02-08T14:01:21.402Z,99884.73
2019-02-08T14:02:25.422Z,99874.63
2019-02-08T14:03:29.492Z,99871.52
2019-02-08T14:04:33.539Z,99877.81
2019-02-08T14:05:37.628Z,99882.14
2019-02-08T14:06:41.722Z,99878.76
2019-02-08T14:07:45.753Z,99877.30
2019-02-08T14:08:49.786Z,99878.33
2019-02-08T14:09:53.806Z,99886.52
2019-02-08T14:10:57.857Z,99876.59
2019-02-08T14:12:01.889Z,99878.33
2019-02-08T14:13:06.101Z,99887.86
2019-02-08T14:14:10.182Z,99890.12
2019-02-08T14:15:14.434Z,99888.98
2019-02-08T14:16:18.557Z,99885.66
2019-02-08T14:17:22.672Z,99890.00
2019-02-08T14:18:26.725Z,99892.98
2019-02-08T14:19:30.814Z,99900.22
2019-02-08T14:20:34.854Z,99896.61
2019-02-08T14:21:38.923Z,99905.20
2019-02-08T14:22:43.037Z,99901.05
2019-02-08T14:23:47.151Z,99901.56
2019-02-08T14:24:51.169Z,99907.76
2019-02-08T14:25:55.234Z,99904.89
2019-02-08T14:26:59.294Z,99891.77
2019-02-08T14:28:03.394Z,99907.76
2019-02-08T14:29:07.517Z,99910.05
2019-02-08T14:30:18.513Z,99911.09
2019-02-08T14:31:22.558Z,99903.55
2019-02-08T14:32:26.630Z,99912.92
2019-02-08T14:33:30.793Z,99910.45
2019-02-08T14:34:34.874Z,99910.45
2019-02-08T14:35:39.158Z,99912.83
2019-02-08T14:36:43.210Z,99910.98